DEDMI EDHE-EDDH
Flight info
| Callsign | DEDMI |
|---|---|
| Flight time | 0h -20m |
| Altitude | 1500 |
| Route | VFR |
| Aircraft | DA40/L-VGD/A |
Departure
| Time | 2026-05-07 09:37 |
|---|---|
| Airport | Uetersen-Heist Airfield (EDHE) |
Arrival
| Time | 2026-05-07 09:17 |
|---|---|
| Airport | Hamburg Helmut Schmidt Airport (EDDH) |
| Time | Latitude | Longitude | Altitude | Speed | Heading |
|---|---|---|---|---|---|
| 2026-05-07 09:17 | 53.64515 | 9.70423 | 24 ft | 0 kts | 285° |
| 2026-05-07 09:25 | 53.64517 | 9.70411 | 23 ft | 3 kts | 282° |
| 2026-05-07 09:25 | 53.64518 | 9.70404 | 23 ft | 0 kts | 281° |
| 2026-05-07 09:31 | 53.64519 | 9.70398 | 23 ft | 4 kts | 292° |
| 2026-05-07 09:31 | 53.64549 | 9.70381 | 23 ft | 6 kts | 351° |
| 2026-05-07 09:31 | 53.64583 | 9.70314 | 23 ft | 10 kts | 275° |
| 2026-05-07 09:32 | 53.64588 | 9.70166 | 23 ft | 15 kts | 273° |
| 2026-05-07 09:32 | 53.64593 | 9.69992 | 23 ft | 15 kts | 271° |
| 2026-05-07 09:32 | 53.64589 | 9.69818 | 23 ft | 15 kts | 270° |
| 2026-05-07 09:32 | 53.64604 | 9.69660 | 23 ft | 13 kts | 281° |
| 2026-05-07 09:33 | 53.64631 | 9.69551 | 23 ft | 6 kts | 342° |
| 2026-05-07 09:33 | 53.64643 | 9.69546 | 23 ft | 0 kts | 352° |
| 2026-05-07 09:34 | 53.64664 | 9.69537 | 23 ft | 6 kts | 346° |
| 2026-05-07 09:35 | 53.64685 | 9.69564 | 23 ft | 0 kts | 92° |
| 2026-05-07 09:35 | 53.64684 | 9.69661 | 23 ft | 27 kts | 94° |
| 2026-05-07 09:36 | 53.64667 | 9.70191 | 30 ft | 61 kts | 91° |
| 2026-05-07 09:36 | 53.64640 | 9.70929 | 165 ft | 69 kts | 91° |
| 2026-05-07 09:36 | 53.64629 | 9.71739 | 333 ft | 70 kts | 88° |
| 2026-05-07 09:36 | 53.64529 | 9.72523 | 451 ft | 75 kts | 126° |
| 2026-05-07 09:37 | 53.63967 | 9.72673 | 536 ft | 96 kts | 185° |
| 2026-05-07 09:37 | 53.63405 | 9.72228 | 732 ft | 96 kts | 228° |
| 2026-05-07 09:37 | 53.63320 | 9.71077 | 758 ft | 108 kts | 278° |
| 2026-05-07 09:37 | 53.63430 | 9.69882 | 1011 ft | 98 kts | 277° |
| 2026-05-07 09:38 | 53.63471 | 9.68663 | 1141 ft | 109 kts | 272° |
| 2026-05-07 09:38 | 53.63514 | 9.67350 | 1278 ft | 112 kts | 272° |
| 2026-05-07 09:38 | 53.63498 | 9.66093 | 1484 ft | 106 kts | 252° |
| 2026-05-07 09:38 | 53.63210 | 9.64957 | 1700 ft | 105 kts | 243° |
| 2026-05-07 09:39 | 53.62912 | 9.63826 | 1906 ft | 105 kts | 244° |
| 2026-05-07 09:39 | 53.62596 | 9.62667 | 2000 ft | 115 kts | 244° |
| 2026-05-07 09:39 | 53.62254 | 9.61410 | 2002 ft | 120 kts | 244° |
| 2026-05-07 09:39 | 53.62024 | 9.60040 | 2001 ft | 126 kts | 273° |
| 2026-05-07 09:40 | 53.62176 | 9.58559 | 2005 ft | 131 kts | 284° |
| 2026-05-07 09:40 | 53.62370 | 9.57042 | 1998 ft | 133 kts | 288° |
| 2026-05-07 09:40 | 53.62766 | 9.55674 | 2001 ft | 128 kts | 302° |
| 2026-05-07 09:40 | 53.63233 | 9.54419 | 1995 ft | 125 kts | 315° |
| 2026-05-07 09:41 | 53.63846 | 9.53401 | 1997 ft | 123 kts | 324° |
| 2026-05-07 09:41 | 53.64547 | 9.52595 | 1999 ft | 122 kts | 333° |
| 2026-05-07 09:41 | 53.65262 | 9.51830 | 1999 ft | 122 kts | 333° |
| 2026-05-07 09:41 | 53.65976 | 9.51068 | 1998 ft | 121 kts | 333° |
| 2026-05-07 09:42 | 53.66692 | 9.50324 | 2000 ft | 121 kts | 334° |
| 2026-05-07 09:42 | 53.67403 | 9.49574 | 2000 ft | 120 kts | 335° |
| 2026-05-07 09:42 | 53.68197 | 9.49403 | 2004 ft | 116 kts | 19° |
| 2026-05-07 09:42 | 53.68786 | 9.50228 | 2002 ft | 110 kts | 66° |
| 2026-05-07 09:43 | 53.68791 | 9.51483 | 2007 ft | 112 kts | 111° |
| 2026-05-07 09:43 | 53.68222 | 9.52383 | 2010 ft | 116 kts | 147° |
| 2026-05-07 09:43 | 53.67493 | 9.52969 | 2013 ft | 116 kts | 150° |
| 2026-05-07 09:43 | 53.66749 | 9.53543 | 2008 ft | 119 kts | 150° |
| 2026-05-07 09:44 | 53.65951 | 9.53888 | 2010 ft | 123 kts | 170° |
| 2026-05-07 09:44 | 53.65090 | 9.53947 | 2005 ft | 124 kts | 172° |
| 2026-05-07 09:44 | 53.64242 | 9.53990 | 2004 ft | 121 kts | 173° |
| 2026-05-07 09:44 | 53.63407 | 9.54059 | 2003 ft | 120 kts | 173° |
| 2026-05-07 09:45 | 53.62578 | 9.54167 | 2004 ft | 120 kts | 172° |
| 2026-05-07 09:45 | 53.61742 | 9.54288 | 1999 ft | 120 kts | 167° |
| 2026-05-07 09:45 | 53.61043 | 9.54936 | 2001 ft | 113 kts | 131° |
| 2026-05-07 09:45 | 53.60540 | 9.55939 | 2005 ft | 112 kts | 124° |
| 2026-05-07 09:46 | 53.60068 | 9.56985 | 1997 ft | 112 kts | 123° |
| 2026-05-07 09:46 | 53.59598 | 9.58035 | 1996 ft | 112 kts | 124° |
| 2026-05-07 09:46 | 53.59132 | 9.59091 | 1995 ft | 112 kts | 123° |
| 2026-05-07 09:46 | 53.58695 | 9.60178 | 1994 ft | 112 kts | 120° |
| 2026-05-07 09:47 | 53.58279 | 9.61283 | 1993 ft | 112 kts | 120° |
| 2026-05-07 09:47 | 53.57867 | 9.62382 | 1989 ft | 110 kts | 116° |
| 2026-05-07 09:47 | 53.57518 | 9.63511 | 1997 ft | 108 kts | 114° |
| 2026-05-07 09:47 | 53.57182 | 9.64648 | 1997 ft | 109 kts | 113° |
| 2026-05-07 09:48 | 53.56844 | 9.65783 | 1996 ft | 108 kts | 113° |
| 2026-05-07 09:48 | 53.56512 | 9.66924 | 1996 ft | 109 kts | 110° |
| 2026-05-07 09:48 | 53.56266 | 9.68142 | 1998 ft | 111 kts | 105° |
| 2026-05-07 09:48 | 53.56034 | 9.69387 | 1996 ft | 112 kts | 106° |
| 2026-05-07 09:49 | 53.55809 | 9.70644 | 1995 ft | 112 kts | 105° |
| 2026-05-07 09:49 | 53.55656 | 9.71922 | 1996 ft | 111 kts | 93° |
| 2026-05-07 09:49 | 53.55627 | 9.73217 | 1993 ft | 110 kts | 91° |
| 2026-05-07 09:49 | 53.55603 | 9.74489 | 2009 ft | 107 kts | 91° |
| 2026-05-07 09:50 | 53.55574 | 9.75762 | 2016 ft | 111 kts | 92° |
| 2026-05-07 09:50 | 53.55523 | 9.77036 | 2071 ft | 109 kts | 93° |
| 2026-05-07 09:50 | 53.55497 | 9.78293 | 2036 ft | 108 kts | 85° |
| 2026-05-07 09:50 | 53.55591 | 9.79564 | 1905 ft | 111 kts | 84° |
| 2026-05-07 09:51 | 53.55669 | 9.80866 | 1773 ft | 114 kts | 84° |
| 2026-05-07 09:51 | 53.55829 | 9.82157 | 1722 ft | 109 kts | 78° |
| 2026-05-07 09:51 | 53.56016 | 9.83386 | 1636 ft | 106 kts | 73° |
| 2026-05-07 09:51 | 53.56236 | 9.84556 | 1546 ft | 103 kts | 74° |
| 2026-05-07 09:52 | 53.56520 | 9.85667 | 1451 ft | 105 kts | 62° |
| 2026-05-07 09:52 | 53.56970 | 9.86664 | 1368 ft | 106 kts | 53° |
| 2026-05-07 09:52 | 53.57458 | 9.87584 | 1311 ft | 105 kts | 54° |
| 2026-05-07 09:52 | 53.57914 | 9.88573 | 1265 ft | 109 kts | 56° |
| 2026-05-07 09:53 | 53.58406 | 9.89554 | 1164 ft | 110 kts | 51° |
| 2026-05-07 09:53 | 53.58900 | 9.90519 | 1116 ft | 108 kts | 53° |
| 2026-05-07 09:53 | 53.59380 | 9.91519 | 1050 ft | 113 kts | 54° |
| 2026-05-07 09:53 | 53.59894 | 9.92549 | 858 ft | 112 kts | 51° |
| 2026-05-07 09:54 | 53.60383 | 9.93483 | 671 ft | 102 kts | 52° |
| 2026-05-07 09:54 | 53.60826 | 9.94366 | 491 ft | 95 kts | 54° |
| 2026-05-07 09:54 | 53.61249 | 9.95202 | 329 ft | 92 kts | 57° |
| 2026-05-07 09:54 | 53.61661 | 9.96047 | 205 ft | 94 kts | 55° |
| 2026-05-07 09:55 | 53.62068 | 9.96860 | 83 ft | 90 kts | 56° |
| 2026-05-07 09:55 | 53.62434 | 9.97610 | 37 ft | 70 kts | 57° |
| 2026-05-07 09:55 | 53.62689 | 9.98116 | 36 ft | 45 kts | 50° |
| 2026-05-07 09:55 | 53.62760 | 9.98313 | 37 ft | 10 kts | 99° |
| 2026-05-07 09:56 | 53.62727 | 9.98379 | 38 ft | 6 kts | 140° |
| 2026-05-07 09:56 | 53.62693 | 9.98427 | 40 ft | 6 kts | 140° |
| 2026-05-07 09:56 | 53.62684 | 9.98439 | 40 ft | 0 kts | 140° |
| 2026-05-07 09:56 | 53.62681 | 9.98443 | 40 ft | 4 kts | 139° |
| 2026-05-07 09:57 | 53.62677 | 9.98523 | 40 ft | 11 kts | 59° |
| 2026-05-07 09:57 | 53.62735 | 9.98645 | 40 ft | 15 kts | 51° |
| 2026-05-07 09:57 | 53.62738 | 9.98714 | 40 ft | 7 kts | 150° |
| 2026-05-07 09:57 | 53.62731 | 9.98770 | 40 ft | 4 kts | 61° |
| 2026-05-07 09:58 | 53.62734 | 9.98781 | 40 ft | 0 kts | 64° |